Time;durP1;ratioP1;P1;durP2;ratioP2;P2;SDS_P1;SDS_P2;PMS_P1;PMS_P2;Temp;Humidity;BMP_temperature;BMP_pressure;BME280_temperature;BME280_humidity;BME280_pressure;Samples;Min_cycle;Max_cycle;Signal;HPM_P1;HPM_P2
2023/12/31 00:02:48;;;;;;;7.23;2.20;;;;;;;;;;10285879;28;20269;-68
2023/12/31 00:07:48;;;;;;;5.30;2.40;;;;;;;;;;10285987;28;20643;-68
2023/12/31 00:12:48;;;;;;;11.27;2.63;;;;;;;;;;10285923;28;20292;-68
2023/12/31 00:17:48;;;;;;;4.20;2.40;;;;;;;;;;10282928;28;20222;-68
2023/12/31 00:22:49;;;;;;;5.87;2.87;;;;;;;;;;10285267;28;20720;-68
2023/12/31 00:27:49;;;;;;;6.83;2.30;;;;;;;;;;10285984;28;20337;-69
2023/12/31 00:32:49;;;;;;;2.73;2.10;;;;;;;;;;10285948;28;20224;-68
2023/12/31 00:37:49;;;;;;;2.30;1.90;;;;;;;;;;10285275;28;20481;-68
2023/12/31 00:42:49;;;;;;;2.03;1.83;;;;;;;;;;10267908;28;20210;-68
2023/12/31 00:47:50;;;;;;;2.87;1.77;;;;;;;;;;10285367;28;20198;-68
2023/12/31 00:52:50;;;;;;;6.10;2.23;;;;;;;;;;10285464;28;20206;-68
2023/12/31 00:57:50;;;;;;;2.03;1.53;;;;;;;;;;10283967;28;20712;-68
2023/12/31 01:02:50;;;;;;;5.43;1.80;;;;;;;;;;10285425;28;20214;-68
2023/12/31 01:07:51;;;;;;;3.93;2.20;;;;;;;;;;10284746;28;20222;-68
2023/12/31 01:12:51;;;;;;;5.13;2.30;;;;;;;;;;10267327;28;20242;-67
2023/12/31 01:17:53;;;;;;;2.80;1.97;;;;;;;;;;10265681;28;20210;-68
2023/12/31 01:22:53;;;;;;;4.50;2.30;;;;;;;;;;10292727;28;20211;-68
2023/12/31 01:27:55;;;;;;;4.43;1.80;;;;;;;;;;10291614;28;20198;-68
2023/12/31 01:32:56;;;;;;;5.97;1.80;;;;;;;;;;10291536;28;20210;-68
2023/12/31 01:37:56;;;;;;;3.20;2.10;;;;;;;;;;10272723;28;20221;-68
2023/12/31 01:42:58;;;;;;;3.73;2.20;;;;;;;;;;10274174;28;20237;-68
2023/12/31 01:47:58;;;;;;;3.27;2.13;;;;;;;;;;10274175;28;20225;-68
2023/12/31 01:52:58;;;;;;;1.87;1.73;;;;;;;;;;10289900;28;20215;-68
2023/12/31 01:57:58;;;;;;;2.53;2.07;;;;;;;;;;10290930;28;20306;-68
2023/12/31 02:02:58;;;;;;;8.07;2.30;;;;;;;;;;10271957;28;20224;-68
2023/12/31 02:07:59;;;;;;;4.17;2.47;;;;;;;;;;10273799;28;20191;-68
2023/12/31 02:12:59;;;;;;;6.23;2.57;;;;;;;;;;10272337;28;20234;-68
2023/12/31 02:18:00;;;;;;;5.87;2.77;;;;;;;;;;10288442;28;20309;-68
2023/12/31 02:23:00;;;;;;;5.00;2.43;;;;;;;;;;10287667;28;20215;-68
2023/12/31 02:28:00;;;;;;;6.37;3.00;;;;;;;;;;10289599;28;20200;-68
2023/12/31 02:33:00;;;;;;;9.77;3.87;;;;;;;;;;10271751;28;20210;-68
2023/12/31 02:38:01;;;;;;;10.03;3.23;;;;;;;;;;10271704;28;20214;-68
2023/12/31 02:43:01;;;;;;;5.47;3.27;;;;;;;;;;10289318;28;20624;-68
2023/12/31 02:48:01;;;;;;;5.40;3.10;;;;;;;;;;10288129;28;20763;-68
2023/12/31 02:53:02;;;;;;;9.23;3.03;;;;;;;;;;10268602;28;20294;-68
2023/12/31 02:58:02;;;;;;;6.13;2.70;;;;;;;;;;10270898;28;21210;-68
2023/12/31 03:03:04;;;;;;;5.90;3.20;;;;;;;;;;10270672;28;20322;-68
2023/12/31 03:08:04;;;;;;;7.17;3.27;;;;;;;;;;10288317;28;20317;-68
2023/12/31 03:13:05;;;;;;;7.80;3.40;;;;;;;;;;10287172;28;20292;-68
2023/12/31 03:18:06;;;;;;;8.27;3.57;;;;;;;;;;10269081;28;20218;-68
2023/12/31 03:23:06;;;;;;;14.53;3.37;;;;;;;;;;10270137;28;20222;-67
2023/12/31 03:28:06;;;;;;;6.57;3.30;;;;;;;;;;10286545;28;20198;-68
2023/12/31 03:33:07;;;;;;;6.90;3.47;;;;;;;;;;10287658;28;20218;-67
2023/12/31 03:38:07;;;;;;;7.20;3.37;;;;;;;;;;10287534;28;20215;-67
2023/12/31 03:43:07;;;;;;;5.67;3.30;;;;;;;;;;10287194;28;20217;-69
2023/12/31 03:48:07;;;;;;;7.50;3.50;;;;;;;;;;10286053;28;20191;-69
2023/12/31 03:53:07;;;;;;;5.77;3.00;;;;;;;;;;10286489;28;20794;-69
2023/12/31 03:58:08;;;;;;;6.07;3.07;;;;;;;;;;10286502;28;20218;-69
2023/12/31 04:03:08;;;;;;;5.77;2.90;;;;;;;;;;10285657;28;20210;-69
2023/12/31 04:08:08;;;;;;;5.97;3.70;;;;;;;;;;10286176;28;20203;-69
2023/12/31 04:13:08;;;;;;;5.63;3.17;;;;;;;;;;10285798;28;20238;-69
2023/12/31 04:18:09;;;;;;;9.37;3.63;;;;;;;;;;10284046;28;20214;-69
2023/12/31 04:23:09;;;;;;;6.17;3.30;;;;;;;;;;10267737;28;20685;-69
2023/12/31 04:28:09;;;;;;;8.17;4.30;;;;;;;;;;10268077;28;20187;-69
2023/12/31 04:33:10;;;;;;;8.53;4.67;;;;;;;;;;10285500;28;20214;-69
2023/12/31 04:38:10;;;;;;;8.63;4.07;;;;;;;;;;10286062;28;20214;-69
2023/12/31 04:43:10;;;;;;;6.40;3.37;;;;;;;;;;10286149;28;20214;-69
2023/12/31 04:48:10;;;;;;;9.55;3.72;;;;;;;;;;10285828;28;20187;-69
2023/12/31 04:53:10;;;;;;;4.63;2.97;;;;;;;;;;10288196;28;20221;-69
2023/12/31 04:58:11;;;;;;;9.57;2.67;;;;;;;;;;10289154;28;20697;-69
2023/12/31 05:03:11;;;;;;;2.10;1.90;;;;;;;;;;10292748;28;20206;-69
2023/12/31 05:08:12;;;;;;;2.20;1.50;;;;;;;;;;10292031;28;20189;-69
2023/12/31 05:13:12;;;;;;;3.07;1.77;;;;;;;;;;10292786;28;20246;-69
2023/12/31 05:18:12;;;;;;;5.10;1.63;;;;;;;;;;10292410;28;20264;-69
2023/12/31 05:23:12;;;;;;;1.87;1.37;;;;;;;;;;10292472;28;20202;-69
2023/12/31 05:28:12;;;;;;;4.27;1.80;;;;;;;;;;10292306;28;20205;-69
2023/12/31 05:33:13;;;;;;;2.70;2.07;;;;;;;;;;10292237;28;20250;-69
2023/12/31 05:38:13;;;;;;;4.63;2.00;;;;;;;;;;10292064;28;20214;-69
2023/12/31 05:43:13;;;;;;;4.80;2.27;;;;;;;;;;10291321;28;20462;-69
2023/12/31 05:48:14;;;;;;;2.67;1.63;;;;;;;;;;10291626;28;20273;-69
2023/12/31 05:53:14;;;;;;;3.67;2.03;;;;;;;;;;10290300;28;20215;-69
2023/12/31 05:58:14;;;;;;;2.27;1.80;;;;;;;;;;10291253;28;20315;-69
2023/12/31 06:03:14;;;;;;;2.53;2.00;;;;;;;;;;10289788;28;20238;-69
2023/12/31 06:08:15;;;;;;;6.17;2.73;;;;;;;;;;10290689;28;20666;-69
2023/12/31 06:13:16;;;;;;;2.83;2.20;;;;;;;;;;10290429;28;20665;-69
2023/12/31 06:18:16;;;;;;;4.10;2.60;;;;;;;;;;10289576;28;20210;-69
2023/12/31 06:23:16;;;;;;;3.63;1.90;;;;;;;;;;10290118;28;20206;-69
2023/12/31 06:28:16;;;;;;;3.10;2.33;;;;;;;;;;10289976;28;20705;-69
2023/12/31 06:33:16;;;;;;;9.03;2.67;;;;;;;;;;10290055;28;20210;-69
2023/12/31 06:38:17;;;;;;;3.50;2.33;;;;;;;;;;10289035;28;20214;-69
2023/12/31 06:43:17;;;;;;;5.20;2.53;;;;;;;;;;10289299;28;20242;-69
2023/12/31 06:48:17;;;;;;;4.90;2.40;;;;;;;;;;10288943;28;20216;-69
2023/12/31 06:53:17;;;;;;;2.50;2.20;;;;;;;;;;10289005;28;20215;-69
2023/12/31 06:58:17;;;;;;;4.23;2.00;;;;;;;;;;10288211;28;20218;-69
2023/12/31 07:03:17;;;;;;;3.83;1.80;;;;;;;;;;10288641;28;20210;-69
2023/12/31 07:08:18;;;;;;;4.23;1.90;;;;;;;;;;10288424;28;20194;-69
2023/12/31 07:13:18;;;;;;;2.70;1.87;;;;;;;;;;10287374;28;20246;-69
2023/12/31 07:18:18;;;;;;;4.17;2.10;;;;;;;;;;10287206;28;20229;-69
2023/12/31 07:23:18;;;;;;;2.63;1.90;;;;;;;;;;10286976;28;20219;-69
2023/12/31 07:28:19;;;;;;;7.60;4.30;;;;;;;;;;10287377;28;20329;-69
2023/12/31 07:33:19;;;;;;;8.83;5.67;;;;;;;;;;10286257;28;20214;-69
2023/12/31 07:38:19;;;;;;;2.33;1.80;;;;;;;;;;10286710;28;20214;-69
2023/12/31 07:43:19;;;;;;;8.30;5.23;;;;;;;;;;10286542;28;20209;-68
2023/12/31 07:48:19;;;;;;;2.97;2.50;;;;;;;;;;10286950;28;20190;-69
2023/12/31 07:53:19;;;;;;;2.97;1.90;;;;;;;;;;10286757;28;20214;-69
2023/12/31 07:58:24;;;;;;;5.60;2.97;;;;;;;;;;10284683;28;20218;-69
2023/12/31 08:03:26;;;;;;;4.37;2.00;;;;;;;;;;10284294;28;20207;-68
2023/12/31 08:08:27;;;;;;;3.20;2.20;;;;;;;;;;10285414;28;20199;-69
2023/12/31 08:13:27;;;;;;;4.73;2.43;;;;;;;;;;10285321;28;20235;-69
2023/12/31 08:18:27;;;;;;;3.33;1.80;;;;;;;;;;10284534;28;20211;-70
2023/12/31 08:23:29;;;;;;;4.93;2.40;;;;;;;;;;10285033;28;20306;-69
2023/12/31 08:28:30;;;;;;;3.30;2.00;;;;;;;;;;10289314;28;20190;-68
2023/12/31 08:33:30;;;;;;;1.77;1.37;;;;;;;;;;10294010;28;20222;-67
2023/12/31 08:38:30;;;;;;;2.80;1.60;;;;;;;;;;10293331;28;20227;-68
2023/12/31 08:43:30;;;;;;;1.10;1.10;;;;;;;;;;10293823;28;20245;-67
2023/12/31 08:48:30;;;;;;;4.13;1.70;;;;;;;;;;10293507;28;20187;-68
2023/12/31 08:53:31;;;;;;;2.77;1.40;;;;;;;;;;10292927;28;20225;-68
2023/12/31 08:58:31;;;;;;;4.03;1.60;;;;;;;;;;10292156;28;20218;-69
2023/12/31 09:03:32;;;;;;;1.87;1.43;;;;;;;;;;10291886;28;20298;-69
2023/12/31 09:08:32;;;;;;;4.70;1.40;;;;;;;;;;10292308;28;20187;-68
2023/12/31 09:13:32;;;;;;;6.57;1.43;;;;;;;;;;10291754;28;20288;-68
2023/12/31 09:18:32;;;;;;;1.70;1.10;;;;;;;;;;10291946;28;20215;-69
2023/12/31 09:23:32;;;;;;;4.47;1.57;;;;;;;;;;10292062;28;20686;-69
2023/12/31 09:28:32;;;;;;;1.90;1.13;;;;;;;;;;10291696;28;20830;-70
2023/12/31 09:33:33;;;;;;;2.47;1.33;;;;;;;;;;10291598;28;20214;-68
2023/12/31 09:38:33;;;;;;;4.87;4.30;;;;;;;;;;10291049;28;20261;-69
2023/12/31 09:43:34;;;;;;;3.50;2.30;;;;;;;;;;10291240;28;20206;-69
2023/12/31 09:48:34;;;;;;;3.17;1.47;;;;;;;;;;10291615;28;20661;-69
2023/12/31 09:53:36;;;;;;;4.83;2.77;;;;;;;;;;10290844;28;20218;-70
2023/12/31 09:58:36;;;;;;;4.37;1.87;;;;;;;;;;10290575;28;20226;-69
2023/12/31 10:03:38;;;;;;;2.80;1.77;;;;;;;;;;10290411;28;20214;-70
2023/12/31 10:08:39;;;;;;;2.73;1.23;;;;;;;;;;10290274;28;20198;-70
2023/12/31 10:13:39;;;;;;;2.10;1.70;;;;;;;;;;10290094;28;20239;-70
2023/12/31 10:18:39;;;;;;;2.77;1.80;;;;;;;;;;10289775;28;20233;-70
2023/12/31 10:23:40;;;;;;;2.20;1.40;;;;;;;;;;10289819;28;20214;-69
2023/12/31 10:28:40;;;;;;;4.30;2.37;;;;;;;;;;10287135;28;20186;-69
2023/12/31 10:33:41;;;;;;;3.13;2.67;;;;;;;;;;10286973;28;20245;-69
2023/12/31 10:38:44;;;;;;;3.60;2.57;;;;;;;;;;10289068;28;20222;-69
2023/12/31 10:43:46;;;;;;;7.97;2.33;;;;;;;;;;10289120;28;20294;-70
2023/12/31 10:48:48;;;;;;;2.00;1.80;;;;;;;;;;10289167;28;20241;-69
2023/12/31 10:53:54;;;;;;;2.90;2.03;;;;;;;;;;10288179;28;20233;-68
2023/12/31 10:58:54;;;;;;;3.47;1.80;;;;;;;;;;10288374;28;20240;-70
2023/12/31 11:03:56;;;;;;;3.43;2.40;;;;;;;;;;10288606;28;20206;-70
2023/12/31 11:08:56;;;;;;;4.80;2.63;;;;;;;;;;10288441;28;20206;-70
2023/12/31 11:13:57;;;;;;;3.73;2.13;;;;;;;;;;10287566;28;20660;-69
2023/12/31 11:19:21;;;;;;;2.47;1.57;;;;;;;;;;10287560;28;20230;-70
2023/12/31 11:24:23;;;;;;;2.80;2.20;;;;;;;;;;10282226;28;20235;-69
2023/12/31 11:29:23;;;;;;;1.73;1.63;;;;;;;;;;10286832;28;20195;-70
2023/12/31 11:34:24;;;;;;;2.60;1.80;;;;;;;;;;10286925;28;20218;-69
2023/12/31 11:39:25;;;;;;;2.20;2.00;;;;;;;;;;10286676;28;20231;-68
2023/12/31 11:44:36;;;;;;;2.70;1.93;;;;;;;;;;10286838;28;20203;-69
2023/12/31 11:49:38;;;;;;;4.43;2.27;;;;;;;;;;10286639;28;20759;-69
2023/12/31 11:54:40;;;;;;;4.80;2.37;;;;;;;;;;10286253;28;20233;-69
2023/12/31 11:59:42;;;;;;;1.37;1.27;;;;;;;;;;10286172;28;20194;-69
2023/12/31 12:04:43;;;;;;;3.73;1.93;;;;;;;;;;10283449;28;20199;-70
2023/12/31 12:09:43;;;;;;;4.37;2.37;;;;;;;;;;10285047;28;20191;-70
2023/12/31 12:14:43;;;;;;;4.80;2.10;;;;;;;;;;10283829;28;20485;-70
2023/12/31 12:19:43;;;;;;;2.10;1.70;;;;;;;;;;10285274;28;20442;-70
2023/12/31 12:24:44;;;;;;;4.10;1.37;;;;;;;;;;10285475;28;20445;-69
2023/12/31 12:29:44;;;;;;;2.73;1.53;;;;;;;;;;10284329;28;20574;-70
2023/12/31 12:34:47;;;;;;;2.40;1.83;;;;;;;;;;10283274;28;20221;-69
2023/12/31 12:39:53;;;;;;;4.30;2.20;;;;;;;;;;10285648;28;20720;-69
2023/12/31 12:44:54;;;;;;;3.90;2.43;;;;;;;;;;10285804;28;20206;-69
2023/12/31 12:49:56;;;;;;;3.37;2.30;;;;;;;;;;10285435;28;20206;-69
2023/12/31 12:54:56;;;;;;;4.47;1.87;;;;;;;;;;10285471;28;20225;-69
2023/12/31 12:59:56;;;;;;;8.63;2.33;;;;;;;;;;10284982;28;20249;-70
2023/12/31 13:04:57;;;;;;;2.67;2.07;;;;;;;;;;10285128;28;20218;-70
2023/12/31 13:09:57;;;;;;;5.03;2.47;;;;;;;;;;10284240;28;20198;-70
2023/12/31 13:14:58;;;;;;;3.87;2.27;;;;;;;;;;10287070;28;20237;-69
2023/12/31 13:19:58;;;;;;;5.43;2.50;;;;;;;;;;10290656;28;20190;-69
2023/12/31 13:24:58;;;;;;;4.63;2.43;;;;;;;;;;10290025;28;20214;-69
2023/12/31 13:29:58;;;;;;;3.65;3.08;;;;;;;;;;10287488;28;20226;-69
2023/12/31 13:34:58;;;;;;;19.17;9.00;;;;;;;;;;10290184;28;20606;-70
2023/12/31 13:39:59;;;;;;;17.67;12.47;;;;;;;;;;10291050;28;20194;-70
2023/12/31 13:44:59;;;;;;;22.60;12.97;;;;;;;;;;10289798;28;20214;-70
2023/12/31 13:49:59;;;;;;;24.87;11.97;;;;;;;;;;10290035;28;20252;-70
2023/12/31 13:54:59;;;;;;;11.90;8.40;;;;;;;;;;10271784;28;20233;-70
2023/12/31 13:59:59;;;;;;;6.20;2.67;;;;;;;;;;10289987;28;20191;-69
2023/12/31 14:05:00;;;;;;;4.57;3.07;;;;;;;;;;10291067;28;20409;-70
2023/12/31 14:10:00;;;;;;;5.27;3.13;;;;;;;;;;10291084;28;20199;-70
2023/12/31 14:15:00;;;;;;;5.27;3.37;;;;;;;;;;10287492;28;20242;-70
2023/12/31 14:20:00;;;;;;;5.27;3.47;;;;;;;;;;10290386;28;20739;-70
2023/12/31 14:25:00;;;;;;;4.83;3.10;;;;;;;;;;10289243;28;20265;-69
2023/12/31 14:30:01;;;;;;;5.23;3.00;;;;;;;;;;10290157;28;20454;-69
2023/12/31 14:35:02;;;;;;;7.73;3.60;;;;;;;;;;10290992;28;20230;-69
2023/12/31 14:40:02;;;;;;;5.87;3.10;;;;;;;;;;10289243;28;20534;-68
2023/12/31 14:45:03;;;;;;;5.60;2.83;;;;;;;;;;10288827;28;20590;-68
2023/12/31 14:50:03;;;;;;;5.13;2.70;;;;;;;;;;10290100;28;20257;-67
2023/12/31 14:55:04;;;;;;;5.50;2.93;;;;;;;;;;10289454;28;20348;-68
2023/12/31 15:00:04;;;;;;;8.10;3.47;;;;;;;;;;10288930;28;20657;-67
2023/12/31 15:05:05;;;;;;;8.70;3.77;;;;;;;;;;10289209;28;20206;-68
2023/12/31 15:10:05;;;;;;;9.17;4.00;;;;;;;;;;10289342;28;20195;-68
2023/12/31 15:15:07;;;;;;;10.70;3.87;;;;;;;;;;10288894;28;20301;-68
2023/12/31 15:20:08;;;;;;;10.43;5.47;;;;;;;;;;10288976;28;20191;-68
2023/12/31 15:25:09;;;;;;;10.10;6.03;;;;;;;;;;10288795;28;20218;-68
2023/12/31 15:30:09;;;;;;;13.63;5.97;;;;;;;;;;10288406;28;20225;-68
2023/12/31 15:35:12;;;;;;;13.47;8.37;;;;;;;;;;10288034;28;20275;-68
2023/12/31 15:40:12;;;;;;;10.33;4.90;;;;;;;;;;10284038;28;20576;-68
2023/12/31 15:45:12;;;;;;;6.70;4.33;;;;;;;;;;10286722;28;20214;-68
2023/12/31 15:50:12;;;;;;;8.43;5.33;;;;;;;;;;10289364;28;20257;-67
2023/12/31 15:55:13;;;;;;;8.73;4.80;;;;;;;;;;10285200;28;20214;-68
2023/12/31 16:00:14;;;;;;;8.07;4.90;;;;;;;;;;10286193;28;20194;-68
2023/12/31 16:05:14;;;;;;;8.43;4.47;;;;;;;;;;10285906;28;20709;-67
2023/12/31 16:10:14;;;;;;;8.27;4.20;;;;;;;;;;10287569;28;20244;-68
2023/12/31 16:15:14;;;;;;;17.73;7.63;;;;;;;;;;10285956;28;20218;-68
2023/12/31 16:20:16;;;;;;;12.17;7.17;;;;;;;;;;10286291;28;20202;-67
2023/12/31 16:25:16;;;;;;;11.67;5.33;;;;;;;;;;10286163;28;21010;-68
2023/12/31 16:30:16;;;;;;;8.93;5.53;;;;;;;;;;10286160;28;20198;-68
2023/12/31 16:35:17;;;;;;;17.30;10.40;;;;;;;;;;10286228;28;20225;-68
2023/12/31 16:40:17;;;;;;;16.40;8.40;;;;;;;;;;10283095;28;20781;-68
2023/12/31 16:45:17;;;;;;;13.20;8.97;;;;;;;;;;10284748;28;20260;-68
2023/12/31 16:50:18;;;;;;;13.80;8.10;;;;;;;;;;10321542;22;20245;-66
2023/12/31 16:55:18;;;;;;;15.23;8.37;;;;;;;;;;10321588;28;20212;-67
2023/12/31 17:00:18;;;;;;;18.53;9.20;;;;;;;;;;10319363;28;20205;-67
2023/12/31 17:05:18;;;;;;;15.73;7.83;;;;;;;;;;10317536;28;20219;-66
2023/12/31 17:10:19;;;;;;;51.70;27.37;;;;;;;;;;10319715;28;20267;-68
2023/12/31 17:15:19;;;;;;;16.67;9.27;;;;;;;;;;10317050;28;20476;-68
2023/12/31 17:20:19;;;;;;;15.17;8.57;;;;;;;;;;10317607;28;20213;-68
2023/12/31 17:25:20;;;;;;;11.40;5.63;;;;;;;;;;10317694;28;20673;-68
2023/12/31 17:30:20;;;;;;;13.23;8.10;;;;;;;;;;10316571;28;20747;-67
2023/12/31 17:35:20;;;;;;;14.10;5.40;;;;;;;;;;10316314;28;20229;-68
2023/12/31 17:40:20;;;;;;;12.70;7.60;;;;;;;;;;10317854;28;20675;-68
2023/12/31 17:45:21;;;;;;;12.40;7.27;;;;;;;;;;10316091;28;20578;-66
2023/12/31 17:50:21;;;;;;;11.23;6.80;;;;;;;;;;10318165;28;20238;-68
2023/12/31 17:55:21;;;;;;;11.20;7.17;;;;;;;;;;10316404;28;20213;-67
2023/12/31 18:00:21;;;;;;;13.07;7.60;;;;;;;;;;10317540;28;20298;-67
2023/12/31 18:05:21;;;;;;;14.20;8.37;;;;;;;;;;10316746;28;20181;-67
2023/12/31 18:10:22;;;;;;;14.93;10.17;;;;;;;;;;10319917;28;20213;-68
2023/12/31 18:15:23;;;;;;;12.67;9.00;;;;;;;;;;10320363;28;20272;-67
2023/12/31 18:20:23;;;;;;;18.17;8.07;;;;;;;;;;10320935;28;20692;-68
2023/12/31 18:25:23;;;;;;;15.63;7.83;;;;;;;;;;10319305;28;20676;-68
2023/12/31 18:30:24;;;;;;;15.90;9.87;;;;;;;;;;10320496;28;20907;-68
2023/12/31 18:35:24;;;;;;;24.53;15.67;;;;;;;;;;10320017;28;20220;-68
2023/12/31 18:40:24;;;;;;;13.03;7.77;;;;;;;;;;10320176;28;20260;-68
2023/12/31 18:45:24;;;;;;;19.97;13.70;;;;;;;;;;10318432;28;20580;-69
2023/12/31 18:50:25;;;;;;;14.77;8.93;;;;;;;;;;10318686;28;20321;-68
2023/12/31 18:55:25;;;;;;;13.23;8.80;;;;;;;;;;10316612;28;20207;-68
2023/12/31 19:00:26;;;;;;;15.67;10.33;;;;;;;;;;10317457;28;20205;-68
2023/12/31 19:05:26;;;;;;;15.07;9.53;;;;;;;;;;10316438;28;20604;-68
2023/12/31 19:10:26;;;;;;;13.00;7.60;;;;;;;;;;10316106;28;20281;-68
2023/12/31 19:15:27;;;;;;;13.73;9.60;;;;;;;;;;10316581;28;20220;-69
2023/12/31 19:20:27;;;;;;;11.00;6.53;;;;;;;;;;10317177;28;20642;-69
2023/12/31 19:25:27;;;;;;;12.67;7.87;;;;;;;;;;10316176;28;20293;-69
2023/12/31 19:30:27;;;;;;;13.53;8.70;;;;;;;;;;10316462;28;20638;-69
2023/12/31 19:35:27;;;;;;;20.13;10.80;;;;;;;;;;10316383;28;20858;-69
2023/12/31 19:40:28;;;;;;;15.03;8.17;;;;;;;;;;10315694;28;21005;-68
2023/12/31 19:45:28;;;;;;;15.90;9.67;;;;;;;;;;10316588;28;20196;-68
2023/12/31 19:50:29;;;;;;;28.63;16.67;;;;;;;;;;10282621;28;987376;-68
2023/12/31 19:55:29;;;;;;;17.10;8.87;;;;;;;;;;10317563;28;20602;-68
2023/12/31 20:00:29;;;;;;;12.17;8.47;;;;;;;;;;10317251;28;20220;-68
2023/12/31 20:05:30;;;;;;;16.47;9.47;;;;;;;;;;10317724;28;20220;-68
2023/12/31 20:10:30;;;;;;;16.60;10.57;;;;;;;;;;10317791;28;20207;-68
2023/12/31 20:15:31;;;;;;;15.03;7.87;;;;;;;;;;10317739;28;20794;-68
2023/12/31 20:20:31;;;;;;;24.33;11.50;;;;;;;;;;10318329;28;20772;-68
2023/12/31 20:25:31;;;;;;;19.63;11.03;;;;;;;;;;10314919;28;20564;-68
2023/12/31 20:30:31;;;;;;;19.00;11.37;;;;;;;;;;10317588;28;20727;-68
2023/12/31 20:35:32;;;;;;;24.13;14.80;;;;;;;;;;10317410;28;20218;-69
2023/12/31 20:40:32;;;;;;;13.77;7.80;;;;;;;;;;10316504;28;20217;-68
2023/12/31 20:45:32;;;;;;;16.70;9.00;;;;;;;;;;10317393;28;20198;-68
2023/12/31 20:50:32;;;;;;;16.53;9.83;;;;;;;;;;10316689;28;20638;-69
2023/12/31 20:55:32;;;;;;;22.47;14.83;;;;;;;;;;10317388;28;20225;-68
2023/12/31 21:00:33;;;;;;;14.83;8.20;;;;;;;;;;10315796;28;20211;-68
2023/12/31 21:05:33;;;;;;;24.80;16.73;;;;;;;;;;10319097;28;20194;-67
2023/12/31 21:10:34;;;;;;;24.47;14.10;;;;;;;;;;10318885;28;20225;-68
2023/12/31 21:15:35;;;;;;;16.87;11.07;;;;;;;;;;10317869;28;20210;-67
2023/12/31 21:20:35;;;;;;;55.07;30.20;;;;;;;;;;10318822;28;20220;-68
2023/12/31 21:25:35;;;;;;;39.72;23.45;;;;;;;;;;10318335;28;20201;-68
2023/12/31 21:30:36;;;;;;;13.80;9.57;;;;;;;;;;10317519;28;20229;-68
2023/12/31 21:35:36;;;;;;;16.07;7.67;;;;;;;;;;10321628;28;20575;-68
2023/12/31 21:40:36;;;;;;;25.40;16.67;;;;;;;;;;10324813;28;20214;-68
2023/12/31 21:45:37;;;;;;;34.80;21.10;;;;;;;;;;10324678;28;20924;-66
2023/12/31 21:50:38;;;;;;;16.13;10.87;;;;;;;;;;10324207;28;20292;-66
2023/12/31 21:55:38;;;;;;;27.63;13.73;;;;;;;;;;10323887;28;20221;-68
2023/12/31 22:00:39;;;;;;;27.60;15.07;;;;;;;;;;10323134;28;20210;-67
2023/12/31 22:05:41;;;;;;;13.20;7.00;;;;;;;;;;10322752;28;20942;-67
2023/12/31 22:10:41;;;;;;;10.87;6.70;;;;;;;;;;10322311;28;20244;-67
2023/12/31 22:15:45;;;;;;;13.30;7.97;;;;;;;;;;10323451;28;20224;-67
2023/12/31 22:20:46;;;;;;;20.27;10.60;;;;;;;;;;10325968;28;20292;-68
2023/12/31 22:25:46;;;;;;;26.13;15.63;;;;;;;;;;10325809;28;20276;-67
2023/12/31 22:30:46;;;;;;;11.83;6.20;;;;;;;;;;10324261;28;20207;-69
2023/12/31 22:35:46;;;;;;;13.90;7.60;;;;;;;;;;10321436;28;20210;-69
2023/12/31 22:40:46;;;;;;;9.67;5.70;;;;;;;;;;10319764;28;20684;-69
2023/12/31 22:45:47;;;;;;;33.00;18.67;;;;;;;;;;10320143;28;20718;-68
2023/12/31 22:50:47;;;;;;;14.47;9.00;;;;;;;;;;10320048;28;20237;-69
2023/12/31 22:55:47;;;;;;;12.17;7.67;;;;;;;;;;10319985;28;20217;-68
2023/12/31 23:00:47;;;;;;;44.93;24.00;;;;;;;;;;10320633;28;20217;-69
2023/12/31 23:05:47;;;;;;;28.40;10.37;;;;;;;;;;10319714;28;20580;-68
2023/12/31 23:10:47;;;;;;;19.23;11.67;;;;;;;;;;10316569;28;20885;-69
2023/12/31 23:15:48;;;;;;;88.57;41.60;;;;;;;;;;10318739;28;20225;-69
2023/12/31 23:20:48;;;;;;;65.10;38.57;;;;;;;;;;10318689;28;20206;-69
2023/12/31 23:25:48;;;;;;;61.47;34.73;;;;;;;;;;10317556;28;20194;-68
2023/12/31 23:30:48;;;;;;;58.37;24.77;;;;;;;;;;10318170;28;20217;-68
2023/12/31 23:35:48;;;;;;;46.03;23.67;;;;;;;;;;10317624;28;20224;-68
2023/12/31 23:40:49;;;;;;;51.83;26.33;;;;;;;;;;10318492;28;20220;-69
2023/12/31 23:45:49;;;;;;;45.77;24.13;;;;;;;;;;10319544;28;20211;-68
2023/12/31 23:50:49;;;;;;;33.23;20.73;;;;;;;;;;10319588;28;20243;-68
2023/12/31 23:55:49;;;;;;;25.80;13.17;;;;;;;;;;10321886;28;20221;-68
